sensor_id;sensor_type;location;lat;lon;timestamp;pressure;altitude;pressure_sealevel;temperature;humidity
10720;BME280;5411;58.386;15.560;2023-04-30T00:00:00;100084.28;;;4.36;69.52
10720;BME280;5411;58.386;15.560;2023-04-30T00:02:29;100086.28;;;4.34;69.85
10720;BME280;5411;58.386;15.560;2023-04-30T00:04:57;100082.00;;;4.24;70.02
10720;BME280;5411;58.386;15.560;2023-04-30T00:07:26;100096.72;;;4.19;70.60
10720;BME280;5411;58.386;15.560;2023-04-30T00:09:54;100092.28;;;4.11;71.27
10720;BME280;5411;58.386;15.560;2023-04-30T00:12:24;100092.13;;;4.05;71.81
10720;BME280;5411;58.386;15.560;2023-04-30T00:14:52;100090.16;;;3.99;72.52
10720;BME280;5411;58.386;15.560;2023-04-30T00:17:22;100086.00;;;3.88;73.11
10720;BME280;5411;58.386;15.560;2023-04-30T00:19:51;100097.56;;;3.87;74.08
10720;BME280;5411;58.386;15.560;2023-04-30T00:22:19;100098.91;;;3.83;74.38
10720;BME280;5411;58.386;15.560;2023-04-30T00:24:49;100097.75;;;3.77;74.83
10720;BME280;5411;58.386;15.560;2023-04-30T00:27:17;100109.47;;;3.75;74.76
10720;BME280;5411;58.386;15.560;2023-04-30T00:29:47;100099.56;;;3.69;75.09
10720;BME280;5411;58.386;15.560;2023-04-30T00:32:15;100112.13;;;3.67;75.51
10720;BME280;5411;58.386;15.560;2023-04-30T00:34:43;100111.63;;;3.63;75.29
10720;BME280;5411;58.386;15.560;2023-04-30T00:37:12;100118.25;;;3.59;75.54
10720;BME280;5411;58.386;15.560;2023-04-30T00:39:41;100110.81;;;3.54;75.55
10720;BME280;5411;58.386;15.560;2023-04-30T00:42:09;100116.25;;;3.53;75.85
10720;BME280;5411;58.386;15.560;2023-04-30T00:44:37;100120.72;;;3.52;75.74
10720;BME280;5411;58.386;15.560;2023-04-30T00:47:07;100118.22;;;3.51;76.02
10720;BME280;5411;58.386;15.560;2023-04-30T00:49:35;100120.56;;;3.46;76.05
10720;BME280;5411;58.386;15.560;2023-04-30T00:52:04;100123.84;;;3.48;75.70
10720;BME280;5411;58.386;15.560;2023-04-30T00:54:32;100123.69;;;3.49;76.16
10720;BME280;5411;58.386;15.560;2023-04-30T00:57:01;100123.38;;;3.44;75.81
10720;BME280;5411;58.386;15.560;2023-04-30T00:59:30;100128.13;;;3.41;76.44
10720;BME280;5411;58.386;15.560;2023-04-30T01:01:59;100124.97;;;3.37;76.67
10720;BME280;5411;58.386;15.560;2023-04-30T01:04:30;100121.19;;;3.32;77.83
10720;BME280;5411;58.386;15.560;2023-04-30T01:06:59;100121.81;;;3.26;77.64
10720;BME280;5411;58.386;15.560;2023-04-30T01:09:29;100120.16;;;3.25;78.18
10720;BME280;5411;58.386;15.560;2023-04-30T01:12:04;100137.69;;;3.26;78.70
10720;BME280;5411;58.386;15.560;2023-04-30T01:14:52;100133.53;;;3.23;78.62
10720;BME280;5411;58.386;15.560;2023-04-30T01:17:32;100135.88;;;3.18;79.37
10720;BME280;5411;58.386;15.560;2023-04-30T01:20:04;100136.19;;;3.15;79.10
10720;BME280;5411;58.386;15.560;2023-04-30T01:22:54;100144.78;;;3.17;79.50
10720;BME280;5411;58.386;15.560;2023-04-30T01:25:50;100144.25;;;3.13;79.76
10720;BME280;5411;58.386;15.560;2023-04-30T01:28:22;100148.72;;;3.13;79.80
10720;BME280;5411;58.386;15.560;2023-04-30T01:30:51;100149.53;;;3.13;79.97
10720;BME280;5411;58.386;15.560;2023-04-30T01:33:20;100148.88;;;3.11;80.46
10720;BME280;5411;58.386;15.560;2023-04-30T01:39:18;100155.16;;;3.10;79.88
10720;BME280;5411;58.386;15.560;2023-04-30T01:41:55;100156.66;;;3.13;79.93
10720;BME280;5411;58.386;15.560;2023-04-30T01:44:41;100155.81;;;3.12;80.08
10720;BME280;5411;58.386;15.560;2023-04-30T01:47:15;100158.47;;;3.12;79.84
10720;BME280;5411;58.386;15.560;2023-04-30T01:49:55;100155.66;;;3.14;80.33
10720;BME280;5411;58.386;15.560;2023-04-30T01:52:31;100158.31;;;3.14;79.93
10720;BME280;5411;58.386;15.560;2023-04-30T01:55:03;100160.94;;;3.14;79.33
10720;BME280;5411;58.386;15.560;2023-04-30T01:57:37;100163.28;;;3.17;79.36
10720;BME280;5411;58.386;15.560;2023-04-30T02:00:08;100160.63;;;3.17;79.42
10720;BME280;5411;58.386;15.560;2023-04-30T02:02:37;100159.81;;;3.16;79.59
10720;BME280;5411;58.386;15.560;2023-04-30T02:05:07;100165.56;;;3.20;78.78
10720;BME280;5411;58.386;15.560;2023-04-30T02:07:40;100165.56;;;3.20;79.46
10720;BME280;5411;58.386;15.560;2023-04-30T02:10:10;100168.56;;;3.17;78.71
10720;BME280;5411;58.386;15.560;2023-04-30T02:12:39;100167.72;;;3.16;78.96
10720;BME280;5411;58.386;15.560;2023-04-30T02:15:10;100175.00;;;3.14;79.67
10720;BME280;5411;58.386;15.560;2023-04-30T02:17:39;100184.88;;;3.12;79.29
10720;BME280;5411;58.386;15.560;2023-04-30T02:20:08;100177.78;;;3.05;79.95
10720;BME280;5411;58.386;15.560;2023-04-30T02:22:36;100176.09;;;3.04;79.65
10720;BME280;5411;58.386;15.560;2023-04-30T02:25:05;100191.97;;;3.04;79.45
10720;BME280;5411;58.386;15.560;2023-04-30T02:27:34;100187.00;;;3.01;80.16
10720;BME280;5411;58.386;15.560;2023-04-30T02:30:03;100199.53;;;2.99;80.41
10720;BME280;5411;58.386;15.560;2023-04-30T02:32:33;100194.41;;;2.97;80.35
10720;BME280;5411;58.386;15.560;2023-04-30T02:35:02;100197.03;;;2.97;81.09
10720;BME280;5411;58.386;15.560;2023-04-30T02:37:31;100197.19;;;2.96;80.47
10720;BME280;5411;58.386;15.560;2023-04-30T02:39:59;100200.00;;;2.94;81.40
10720;BME280;5411;58.386;15.560;2023-04-30T02:42:29;100198.50;;;2.92;80.97
10720;BME280;5411;58.386;15.560;2023-04-30T02:44:57;100204.78;;;2.91;81.58
10720;BME280;5411;58.386;15.560;2023-04-30T02:47:26;100210.22;;;2.89;81.86
10720;BME280;5411;58.386;15.560;2023-04-30T02:49:56;100212.34;;;2.85;81.33
10720;BME280;5411;58.386;15.560;2023-04-30T02:52:24;100207.72;;;2.88;81.41
10720;BME280;5411;58.386;15.560;2023-04-30T02:54:52;100217.09;;;2.82;82.23
10720;BME280;5411;58.386;15.560;2023-04-30T02:57:21;100205.84;;;2.80;82.34
10720;BME280;5411;58.386;15.560;2023-04-30T02:59:49;100213.63;;;2.81;83.27
10720;BME280;5411;58.386;15.560;2023-04-30T03:02:18;100212.97;;;2.79;83.05
10720;BME280;5411;58.386;15.560;2023-04-30T03:04:49;100213.44;;;2.75;83.61
10720;BME280;5411;58.386;15.560;2023-04-30T03:07:19;100216.09;;;2.75;83.98
10720;BME280;5411;58.386;15.560;2023-04-30T03:09:47;100219.84;;;2.72;84.83
10720;BME280;5411;58.386;15.560;2023-04-30T03:12:16;100225.00;;;2.74;85.49
10720;BME280;5411;58.386;15.560;2023-04-30T03:14:45;100222.50;;;2.72;85.88
10720;BME280;5411;58.386;15.560;2023-04-30T03:17:13;100226.13;;;2.71;86.38
10720;BME280;5411;58.386;15.560;2023-04-30T03:19:42;100232.22;;;2.72;86.16
10720;BME280;5411;58.386;15.560;2023-04-30T03:22:10;100232.38;;;2.70;86.81
10720;BME280;5411;58.386;15.560;2023-04-30T03:24:40;100231.41;;;2.71;87.93
10720;BME280;5411;58.386;15.560;2023-04-30T03:27:08;100237.88;;;2.77;88.12
10720;BME280;5411;58.386;15.560;2023-04-30T03:29:36;100228.97;;;2.78;87.86
10720;BME280;5411;58.386;15.560;2023-04-30T03:32:05;100239.81;;;2.93;88.08
10720;BME280;5411;58.386;15.560;2023-04-30T03:34:37;100240.16;;;2.98;87.46
10720;BME280;5411;58.386;15.560;2023-04-30T03:37:05;100233.72;;;3.00;87.21
10720;BME280;5411;58.386;15.560;2023-04-30T03:39:35;100251.94;;;3.11;87.34
10720;BME280;5411;58.386;15.560;2023-04-30T03:42:05;100249.50;;;3.18;87.71
10720;BME280;5411;58.386;15.560;2023-04-30T03:44:33;100252.50;;;3.23;87.83
10720;BME280;5411;58.386;15.560;2023-04-30T03:47:01;100264.94;;;3.31;87.79
10720;BME280;5411;58.386;15.560;2023-04-30T03:49:30;100254.03;;;3.34;87.06
10720;BME280;5411;58.386;15.560;2023-04-30T03:51:58;100250.91;;;3.38;87.27
10720;BME280;5411;58.386;15.560;2023-04-30T03:54:27;100266.78;;;3.46;87.31
10720;BME280;5411;58.386;15.560;2023-04-30T03:56:55;100262.69;;;3.52;86.73
10720;BME280;5411;58.386;15.560;2023-04-30T03:59:32;100267.53;;;3.56;86.53
10720;BME280;5411;58.386;15.560;2023-04-30T04:02:02;100273.47;;;3.58;86.60
10720;BME280;5411;58.386;15.560;2023-04-30T04:04:31;100264.88;;;3.65;86.36
10720;BME280;5411;58.386;15.560;2023-04-30T04:06:59;100277.81;;;3.68;85.71
10720;BME280;5411;58.386;15.560;2023-04-30T04:09:29;100274.00;;;3.70;85.60
10720;BME280;5411;58.386;15.560;2023-04-30T04:11:57;100277.81;;;3.68;85.60
10720;BME280;5411;58.386;15.560;2023-04-30T04:14:26;100280.97;;;3.79;85.40
10720;BME280;5411;58.386;15.560;2023-04-30T04:16:58;100282.31;;;3.83;84.98
10720;BME280;5411;58.386;15.560;2023-04-30T04:19:29;100280.97;;;3.87;84.45
10720;BME280;5411;58.386;15.560;2023-04-30T04:21:57;100281.84;;;3.96;84.30
10720;BME280;5411;58.386;15.560;2023-04-30T04:24:25;100287.63;;;4.00;83.81
10720;BME280;5411;58.386;15.560;2023-04-30T04:26:54;100288.66;;;4.07;83.99
10720;BME280;5411;58.386;15.560;2023-04-30T04:29:22;100295.13;;;4.12;83.61
10720;BME280;5411;58.386;15.560;2023-04-30T04:31:52;100297.78;;;4.20;83.46
10720;BME280;5411;58.386;15.560;2023-04-30T04:34:21;100297.47;;;4.23;82.66
10720;BME280;5411;58.386;15.560;2023-04-30T04:36:49;100294.13;;;4.29;82.12
10720;BME280;5411;58.386;15.560;2023-04-30T04:39:19;100303.09;;;4.37;82.12
10720;BME280;5411;58.386;15.560;2023-04-30T04:41:49;100308.56;;;4.43;82.15
10720;BME280;5411;58.386;15.560;2023-04-30T04:44:17;100311.53;;;4.48;81.87
10720;BME280;5411;58.386;15.560;2023-04-30T04:46:46;100309.88;;;4.55;81.39
10720;BME280;5411;58.386;15.560;2023-04-30T04:49:16;100319.84;;;4.61;81.04
10720;BME280;5411;58.386;15.560;2023-04-30T04:51:44;100321.81;;;4.68;81.09
10720;BME280;5411;58.386;15.560;2023-04-30T04:54:12;100310.22;;;4.69;80.70
10720;BME280;5411;58.386;15.560;2023-04-30T04:56:41;100320.00;;;4.76;80.54
10720;BME280;5411;58.386;15.560;2023-04-30T04:59:09;100333.41;;;4.83;79.59
10720;BME280;5411;58.386;15.560;2023-04-30T05:01:38;100322.47;;;4.86;80.17
10720;BME280;5411;58.386;15.560;2023-04-30T05:04:06;100333.88;;;4.94;79.06
10720;BME280;5411;58.386;15.560;2023-04-30T05:06:36;100333.56;;;4.97;79.29
10720;BME280;5411;58.386;15.560;2023-04-30T05:09:05;100336.38;;;5.04;78.90
10720;BME280;5411;58.386;15.560;2023-04-30T05:11:35;100333.03;;;5.10;78.56
10720;BME280;5411;58.386;15.560;2023-04-30T05:14:04;100340.47;;;5.23;78.97
10720;BME280;5411;58.386;15.560;2023-04-30T05:16:32;100331.53;;;5.24;77.99
10720;BME280;5411;58.386;15.560;2023-04-30T05:19:01;100343.75;;;5.33;77.95
10720;BME280;5411;58.386;15.560;2023-04-30T05:21:30;100343.44;;;5.36;77.30
10720;BME280;5411;58.386;15.560;2023-04-30T05:24:01;100349.91;;;5.42;77.14
10720;BME280;5411;58.386;15.560;2023-04-30T05:26:29;100347.75;;;5.45;76.68
10720;BME280;5411;58.386;15.560;2023-04-30T05:28:57;100358.81;;;5.49;76.20
10720;BME280;5411;58.386;15.560;2023-04-30T05:31:26;100354.00;;;5.52;76.17
10720;BME280;5411;58.386;15.560;2023-04-30T05:33:54;100365.25;;;5.62;75.22
10720;BME280;5411;58.386;15.560;2023-04-30T05:36:23;100357.78;;;5.66;74.94
10720;BME280;5411;58.386;15.560;2023-04-30T05:38:51;100361.88;;;5.77;74.13
10720;BME280;5411;58.386;15.560;2023-04-30T05:41:21;100355.56;;;5.78;73.33
10720;BME280;5411;58.386;15.560;2023-04-30T05:43:50;100360.38;;;5.82;73.10
10720;BME280;5411;58.386;15.560;2023-04-30T05:46:20;100360.53;;;5.89;72.76
10720;BME280;5411;58.386;15.560;2023-04-30T05:48:49;100359.84;;;5.95;72.76
10720;BME280;5411;58.386;15.560;2023-04-30T05:51:17;100369.44;;;6.04;72.77
10720;BME280;5411;58.386;15.560;2023-04-30T05:53:45;100366.38;;;6.15;71.42
10720;BME280;5411;58.386;15.560;2023-04-30T05:56:13;100371.66;;;6.23;70.01
10720;BME280;5411;58.386;15.560;2023-04-30T05:58:43;100376.31;;;6.21;69.84
10720;BME280;5411;58.386;15.560;2023-04-30T06:01:11;100381.59;;;6.29;69.49
10720;BME280;5411;58.386;15.560;2023-04-30T06:03:40;100376.59;;;6.34;68.07
10720;BME280;5411;58.386;15.560;2023-04-30T06:06:08;100384.50;;;6.42;66.66
10720;BME280;5411;58.386;15.560;2023-04-30T06:08:36;100379.97;;;6.51;68.83
10720;BME280;5411;58.386;15.560;2023-04-30T06:11:07;100386.38;;;6.65;68.97
10720;BME280;5411;58.386;15.560;2023-04-30T06:13:36;100383.34;;;6.68;66.32
10720;BME280;5411;58.386;15.560;2023-04-30T06:16:07;100373.47;;;6.76;66.76
10720;BME280;5411;58.386;15.560;2023-04-30T06:18:35;100374.59;;;6.82;64.95
10720;BME280;5411;58.386;15.560;2023-04-30T06:21:04;100377.25;;;6.82;65.28
10720;BME280;5411;58.386;15.560;2023-04-30T06:23:32;100373.41;;;6.85;65.48
10720;BME280;5411;58.386;15.560;2023-04-30T06:26:01;100383.88;;;6.86;64.43
10720;BME280;5411;58.386;15.560;2023-04-30T06:28:29;100383.69;;;6.88;64.62
10720;BME280;5411;58.386;15.560;2023-04-30T06:30:58;100385.53;;;6.87;64.82
10720;BME280;5411;58.386;15.560;2023-04-30T06:33:28;100388.09;;;6.95;64.90
10720;BME280;5411;58.386;15.560;2023-04-30T06:35:56;100393.22;;;7.05;63.16
10720;BME280;5411;58.386;15.560;2023-04-30T06:38:24;100386.22;;;7.04;63.94
10720;BME280;5411;58.386;15.560;2023-04-30T06:40:52;100388.16;;;7.10;62.56
10720;BME280;5411;58.386;15.560;2023-04-30T06:43:21;100390.47;;;7.13;62.91
10720;BME280;5411;58.386;15.560;2023-04-30T06:45:49;100389.63;;;7.12;64.00
10720;BME280;5411;58.386;15.560;2023-04-30T06:48:17;100395.69;;;7.21;63.85
10720;BME280;5411;58.386;15.560;2023-04-30T06:50:47;100400.41;;;7.34;62.79
10720;BME280;5411;58.386;15.560;2023-04-30T06:53:15;100402.72;;;7.37;61.47
10720;BME280;5411;58.386;15.560;2023-04-30T06:55:44;100395.19;;;7.40;62.23
10720;BME280;5411;58.386;15.560;2023-04-30T06:58:13;100399.69;;;7.40;60.59
10720;BME280;5411;58.386;15.560;2023-04-30T07:00:41;100406.50;;;7.42;60.28
10720;BME280;5411;58.386;15.560;2023-04-30T07:03:10;100404.09;;;7.47;60.26
10720;BME280;5411;58.386;15.560;2023-04-30T07:05:39;100401.00;;;7.44;60.04
10720;BME280;5411;58.386;15.560;2023-04-30T07:08:10;100416.03;;;7.51;60.68
10720;BME280;5411;58.386;15.560;2023-04-30T07:10:38;100410.53;;;7.53;59.62
10720;BME280;5411;58.386;15.560;2023-04-30T07:13:07;100406.53;;;7.57;59.48
10720;BME280;5411;58.386;15.560;2023-04-30T07:15:36;100423.09;;;7.59;59.75
10720;BME280;5411;58.386;15.560;2023-04-30T07:18:05;100416.16;;;7.58;59.47
10720;BME280;5411;58.386;15.560;2023-04-30T07:20:34;100426.81;;;7.58;59.36
10720;BME280;5411;58.386;15.560;2023-04-30T07:23:02;100429.91;;;7.62;58.82
10720;BME280;5411;58.386;15.560;2023-04-30T07:25:33;100432.03;;;7.66;58.64
10720;BME280;5411;58.386;15.560;2023-04-30T07:28:02;100431.75;;;7.76;58.95
10720;BME280;5411;58.386;15.560;2023-04-30T07:30:32;100431.94;;;7.74;58.47
10720;BME280;5411;58.386;15.560;2023-04-30T07:33:00;100441.34;;;7.85;59.37
10720;BME280;5411;58.386;15.560;2023-04-30T07:35:29;100449.59;;;7.90;58.94
10720;BME280;5411;58.386;15.560;2023-04-30T07:37:57;100445.38;;;7.96;57.89
10720;BME280;5411;58.386;15.560;2023-04-30T07:40:27;100448.69;;;7.98;57.88
10720;BME280;5411;58.386;15.560;2023-04-30T07:43:01;100449.88;;;8.10;58.35
10720;BME280;5411;58.386;15.560;2023-04-30T07:45:30;100452.81;;;8.15;56.94
10720;BME280;5411;58.386;15.560;2023-04-30T07:48:00;100451.16;;;8.14;57.87
10720;BME280;5411;58.386;15.560;2023-04-30T07:50:29;100447.09;;;8.18;57.85
10720;BME280;5411;58.386;15.560;2023-04-30T07:53:00;100451.78;;;8.16;55.98
10720;BME280;5411;58.386;15.560;2023-04-30T07:55:29;100458.69;;;8.25;55.61
10720;BME280;5411;58.386;15.560;2023-04-30T07:57:57;100472.41;;;8.37;54.39
10720;BME280;5411;58.386;15.560;2023-04-30T08:00:30;100461.34;;;8.40;55.23
10720;BME280;5411;58.386;15.560;2023-04-30T08:02:59;100471.09;;;8.47;54.10
10720;BME280;5411;58.386;15.560;2023-04-30T08:05:27;100478.75;;;8.50;53.94
10720;BME280;5411;58.386;15.560;2023-04-30T08:07:56;100466.22;;;8.51;53.29
10720;BME280;5411;58.386;15.560;2023-04-30T08:10:27;100477.91;;;8.50;53.40
10720;BME280;5411;58.386;15.560;2023-04-30T08:12:56;100472.19;;;8.53;53.70
10720;BME280;5411;58.386;15.560;2023-04-30T08:15:24;100474.38;;;8.64;52.95
10720;BME280;5411;58.386;15.560;2023-04-30T08:17:56;100479.97;;;8.69;51.54
10720;BME280;5411;58.386;15.560;2023-04-30T08:20:25;100481.13;;;8.81;52.09
10720;BME280;5411;58.386;15.560;2023-04-30T08:22:53;100473.03;;;8.89;50.29
10720;BME280;5411;58.386;15.560;2023-04-30T08:25:22;100491.63;;;8.83;50.06
10720;BME280;5411;58.386;15.560;2023-04-30T08:27:53;100485.22;;;8.77;50.77
10720;BME280;5411;58.386;15.560;2023-04-30T08:30:22;100491.97;;;8.80;50.09
10720;BME280;5411;58.386;15.560;2023-04-30T08:32:50;100490.78;;;8.82;49.93
10720;BME280;5411;58.386;15.560;2023-04-30T08:35:24;100501.91;;;8.86;49.87
10720;BME280;5411;58.386;15.560;2023-04-30T08:37:52;100504.59;;;8.86;47.52
10720;BME280;5411;58.386;15.560;2023-04-30T08:40:31;100488.22;;;8.89;47.94
10720;BME280;5411;58.386;15.560;2023-04-30T08:43:20;100498.13;;;8.95;47.33
10720;BME280;5411;58.386;15.560;2023-04-30T08:45:50;100526.41;;;8.89;47.24
10720;BME280;5411;58.386;15.560;2023-04-30T08:48:20;100518.94;;;8.85;45.56
10720;BME280;5411;58.386;15.560;2023-04-30T08:50:52;100509.94;;;8.86;45.79
10720;BME280;5411;58.386;15.560;2023-04-30T08:53:21;100529.69;;;8.91;46.39
10720;BME280;5411;58.386;15.560;2023-04-30T08:55:49;100526.75;;;8.86;46.04
10720;BME280;5411;58.386;15.560;2023-04-30T08:58:18;100531.22;;;9.01;47.46
10720;BME280;5411;58.386;15.560;2023-04-30T09:00:46;100531.94;;;9.09;44.15
10720;BME280;5411;58.386;15.560;2023-04-30T09:03:14;100523.47;;;9.06;44.74
10720;BME280;5411;58.386;15.560;2023-04-30T09:05:44;100523.41;;;9.20;45.16
10720;BME280;5411;58.386;15.560;2023-04-30T09:08:38;100541.56;;;9.25;43.22
10720;BME280;5411;58.386;15.560;2023-04-30T09:11:19;100539.06;;;9.23;41.89
10720;BME280;5411;58.386;15.560;2023-04-30T09:13:49;100535.84;;;9.28;42.75
10720;BME280;5411;58.386;15.560;2023-04-30T09:16:19;100545.69;;;9.27;41.67
10720;BME280;5411;58.386;15.560;2023-04-30T09:18:48;100538.31;;;9.29;41.84
10720;BME280;5411;58.386;15.560;2023-04-30T09:21:30;100540.28;;;9.42;42.76
10720;BME280;5411;58.386;15.560;2023-04-30T09:24:01;100543.78;;;9.43;41.84
10720;BME280;5411;58.386;15.560;2023-04-30T09:26:36;100550.59;;;9.45;39.15
10720;BME280;5411;58.386;15.560;2023-04-30T09:29:05;100549.97;;;9.43;40.67
10720;BME280;5411;58.386;15.560;2023-04-30T09:31:36;100549.56;;;9.46;40.49
10720;BME280;5411;58.386;15.560;2023-04-30T09:34:05;100545.19;;;9.39;39.42
10720;BME280;5411;58.386;15.560;2023-04-30T09:36:34;100550.34;;;9.40;39.87
10720;BME280;5411;58.386;15.560;2023-04-30T09:39:08;100558.34;;;9.40;40.56
10720;BME280;5411;58.386;15.560;2023-04-30T09:41:41;100557.19;;;9.49;40.86
10720;BME280;5411;58.386;15.560;2023-04-30T09:44:25;100556.06;;;9.58;41.30
10720;BME280;5411;58.386;15.560;2023-04-30T09:46:55;100550.97;;;9.63;40.34
10720;BME280;5411;58.386;15.560;2023-04-30T09:49:23;100555.28;;;9.64;39.78
10720;BME280;5411;58.386;15.560;2023-04-30T09:51:54;100560.91;;;9.70;39.75
10720;BME280;5411;58.386;15.560;2023-04-30T09:54:26;100562.31;;;9.72;39.88
10720;BME280;5411;58.386;15.560;2023-04-30T09:56:56;100582.06;;;9.71;39.00
10720;BME280;5411;58.386;15.560;2023-04-30T09:59:28;100571.88;;;9.60;38.96
10720;BME280;5411;58.386;15.560;2023-04-30T10:01:58;100583.84;;;9.64;39.63
10720;BME280;5411;58.386;15.560;2023-04-30T10:04:30;100580.34;;;9.63;40.00
10720;BME280;5411;58.386;15.560;2023-04-30T10:07:01;100579.16;;;9.66;38.86
10720;BME280;5411;58.386;15.560;2023-04-30T10:09:37;100573.94;;;9.58;39.10
10720;BME280;5411;58.386;15.560;2023-04-30T10:12:12;100574.19;;;9.63;40.10
10720;BME280;5411;58.386;15.560;2023-04-30T10:14:47;100575.31;;;9.75;40.33
10720;BME280;5411;58.386;15.560;2023-04-30T10:17:19;100577.69;;;9.85;39.36
10720;BME280;5411;58.386;15.560;2023-04-30T10:19:51;100586.38;;;9.93;39.53
10720;BME280;5411;58.386;15.560;2023-04-30T10:22:22;100579.66;;;10.04;39.10
10720;BME280;5411;58.386;15.560;2023-04-30T10:24:52;100585.59;;;10.21;38.20
10720;BME280;5411;58.386;15.560;2023-04-30T10:27:21;100578.22;;;10.23;39.51
10720;BME280;5411;58.386;15.560;2023-04-30T10:29:50;100590.97;;;10.27;37.68
10720;BME280;5411;58.386;15.560;2023-04-30T10:32:19;100593.22;;;10.24;36.85
10720;BME280;5411;58.386;15.560;2023-04-30T10:34:56;100582.44;;;10.17;36.36
10720;BME280;5411;58.386;15.560;2023-04-30T10:37:31;100570.09;;;10.16;36.45
10720;BME280;5411;58.386;15.560;2023-04-30T10:40:04;100588.06;;;10.22;36.58
10720;BME280;5411;58.386;15.560;2023-04-30T10:42:36;100584.41;;;10.30;36.02
10720;BME280;5411;58.386;15.560;2023-04-30T10:45:09;100593.50;;;10.35;36.27
10720;BME280;5411;58.386;15.560;2023-04-30T10:47:41;100592.31;;;10.38;34.70
10720;BME280;5411;58.386;15.560;2023-04-30T10:50:10;100583.19;;;10.32;35.65
10720;BME280;5411;58.386;15.560;2023-04-30T10:52:39;100584.84;;;10.33;36.47
10720;BME280;5411;58.386;15.560;2023-04-30T10:55:09;100580.81;;;10.44;36.18
10720;BME280;5411;58.386;15.560;2023-04-30T10:57:43;100588.91;;;10.57;36.79
10720;BME280;5411;58.386;15.560;2023-04-30T11:00:18;100587.50;;;10.61;36.29
10720;BME280;5411;58.386;15.560;2023-04-30T11:02:46;100600.69;;;10.63;37.79
10720;BME280;5411;58.386;15.560;2023-04-30T11:05:16;100603.78;;;10.66;36.77
10720;BME280;5411;58.386;15.560;2023-04-30T11:07:49;100595.25;;;10.50;35.81
10720;BME280;5411;58.386;15.560;2023-04-30T11:10:22;100598.41;;;10.60;36.68
10720;BME280;5411;58.386;15.560;2023-04-30T11:12:52;100610.00;;;10.74;36.50
10720;BME280;5411;58.386;15.560;2023-04-30T11:15:23;100607.13;;;10.75;35.73
10720;BME280;5411;58.386;15.560;2023-04-30T11:17:56;100601.91;;;10.67;35.00
10720;BME280;5411;58.386;15.560;2023-04-30T11:20:25;100602.34;;;10.70;36.45
10720;BME280;5411;58.386;15.560;2023-04-30T11:23:10;100596.84;;;10.79;36.21
10720;BME280;5411;58.386;15.560;2023-04-30T11:25:53;100599.28;;;10.74;35.24
10720;BME280;5411;58.386;15.560;2023-04-30T11:28:22;100605.09;;;10.77;36.15
10720;BME280;5411;58.386;15.560;2023-04-30T11:30:52;100612.50;;;10.82;35.73
10720;BME280;5411;58.386;15.560;2023-04-30T11:33:30;100595.63;;;10.81;36.16
10720;BME280;5411;58.386;15.560;2023-04-30T11:36:00;100609.19;;;10.80;35.55
10720;BME280;5411;58.386;15.560;2023-04-30T11:38:30;100605.31;;;10.82;35.90
10720;BME280;5411;58.386;15.560;2023-04-30T11:41:02;100607.41;;;10.87;35.28
10720;BME280;5411;58.386;15.560;2023-04-30T11:43:32;100607.16;;;10.82;35.38
10720;BME280;5411;58.386;15.560;2023-04-30T11:46:08;100600.81;;;10.89;36.52
10720;BME280;5411;58.386;15.560;2023-04-30T11:48:37;100597.56;;;11.00;35.88
10720;BME280;5411;58.386;15.560;2023-04-30T11:51:13;100594.31;;;11.05;35.47
10720;BME280;5411;58.386;15.560;2023-04-30T11:53:42;100597.38;;;11.02;35.96
10720;BME280;5411;58.386;15.560;2023-04-30T11:56:16;100594.06;;;11.00;34.37
10720;BME280;5411;58.386;15.560;2023-04-30T11:58:47;100601.28;;;10.99;35.46
10720;BME280;5411;58.386;15.560;2023-04-30T12:01:16;100596.75;;;11.00;36.24
10720;BME280;5411;58.386;15.560;2023-04-30T12:03:47;100588.53;;;11.08;35.43
10720;BME280;5411;58.386;15.560;2023-04-30T12:06:21;100599.22;;;11.08;35.34
10720;BME280;5411;58.386;15.560;2023-04-30T12:08:51;100604.84;;;11.13;35.98
10720;BME280;5411;58.386;15.560;2023-04-30T12:11:23;100600.69;;;11.11;35.44
10720;BME280;5411;58.386;15.560;2023-04-30T12:13:53;100601.97;;;11.15;36.11
10720;BME280;5411;58.386;15.560;2023-04-30T12:16:23;100603.81;;;11.14;36.13
10720;BME280;5411;58.386;15.560;2023-04-30T12:18:52;100604.63;;;11.15;36.27
10720;BME280;5411;58.386;15.560;2023-04-30T12:21:24;100602.97;;;11.20;36.48
10720;BME280;5411;58.386;15.560;2023-04-30T12:23:54;100608.00;;;11.36;36.58
10720;BME280;5411;58.386;15.560;2023-04-30T12:26:33;100614.16;;;11.30;36.50
10720;BME280;5411;58.386;15.560;2023-04-30T12:29:03;100607.16;;;11.36;36.67
10720;BME280;5411;58.386;15.560;2023-04-30T12:31:32;100617.09;;;11.42;37.24
10720;BME280;5411;58.386;15.560;2023-04-30T12:34:06;100620.81;;;11.54;35.90
10720;BME280;5411;58.386;15.560;2023-04-30T12:36:39;100626.34;;;11.46;34.73
10720;BME280;5411;58.386;15.560;2023-04-30T12:39:10;100623.06;;;11.51;35.08
10720;BME280;5411;58.386;15.560;2023-04-30T12:41:41;100618.34;;;11.53;36.10
10720;BME280;5411;58.386;15.560;2023-04-30T12:44:13;100621.84;;;11.60;36.21
10720;BME280;5411;58.386;15.560;2023-04-30T12:46:42;100616.53;;;11.66;36.09
10720;BME280;5411;58.386;15.560;2023-04-30T12:49:21;100616.72;;;11.58;35.12
10720;BME280;5411;58.386;15.560;2023-04-30T12:51:51;100617.09;;;11.49;34.74
10720;BME280;5411;58.386;15.560;2023-04-30T12:54:26;100627.22;;;11.53;35.61
10720;BME280;5411;58.386;15.560;2023-04-30T12:56:59;100640.22;;;11.56;34.24
10720;BME280;5411;58.386;15.560;2023-04-30T12:59:29;100623.91;;;11.45;33.19
10720;BME280;5411;58.386;15.560;2023-04-30T13:02:06;100631.13;;;11.51;32.74
10720;BME280;5411;58.386;15.560;2023-04-30T13:04:35;100622.06;;;11.52;33.06
10720;BME280;5411;58.386;15.560;2023-04-30T13:07:07;100616.50;;;11.60;34.48
10720;BME280;5411;58.386;15.560;2023-04-30T13:09:36;100617.78;;;11.70;33.91
10720;BME280;5411;58.386;15.560;2023-04-30T13:12:07;100636.56;;;11.77;33.71
10720;BME280;5411;58.386;15.560;2023-04-30T13:14:35;100624.81;;;11.78;31.89
10720;BME280;5411;58.386;15.560;2023-04-30T13:17:05;100622.50;;;11.75;31.93